Time,TemperatureF,DewpointF,PressureIn,WindDirection,WindDirectionDegrees,WindSpeedMPH,WindSpeedGustMPH,Humidity,HourlyPrecipIn,Conditions,Clouds,dailyrainin,SoftwareType,DateUTC
2013-03-08 00:02:00,48.0,46.9,29.18,ESE,107,15.0,20.0,96,0.00,,,0.05,meteohub,2013-03-08 00:02:00,
2013-03-08 00:07:00,48.2,47.1,29.18,North,0,11.0,22.0,96,0.00,,,0.00,meteohub,2013-03-08 00:07:00,
2013-03-08 00:12:00,48.2,47.1,29.18,ESE,104,14.0,22.0,96,0.00,,,0.00,meteohub,2013-03-08 00:12:00,
2013-03-08 00:17:00,48.4,47.5,29.19,ESE,107,13.0,24.0,97,0.00,,,0.00,meteohub,2013-03-08 00:17:00,
2013-03-08 00:22:00,48.4,47.5,29.19,ESE,104,11.0,26.0,97,0.00,,,0.00,meteohub,2013-03-08 00:22:00,
2013-03-08 00:27:00,48.4,47.5,29.19,East,90,14.0,26.0,97,0.00,,,0.00,meteohub,2013-03-08 00:27:00,
2013-03-08 00:32:00,48.4,47.5,29.19,East,88,11.0,26.0,97,0.00,,,0.00,meteohub,2013-03-08 00:32:00,
2013-03-08 00:37:00,48.4,47.5,29.19,East,83,18.0,21.0,97,0.00,,,0.00,meteohub,2013-03-08 00:37:00,
2013-03-08 00:42:00,48.4,47.3,29.19,ESE,102,14.0,21.0,96,0.00,,,0.00,meteohub,2013-03-08 00:42:00,
2013-03-08 00:47:00,48.4,47.3,29.19,ESE,107,10.0,22.0,96,0.00,,,0.00,meteohub,2013-03-08 00:47:00,
2013-03-08 00:57:00,48.4,47.3,29.19,East,86,9.0,22.0,96,0.00,,,0.00,meteohub,2013-03-08 00:57:00,
2013-03-08 01:02:00,48.4,47.5,29.19,East,82,11.0,20.0,97,0.00,,,0.00,meteohub,2013-03-08 01:02:00,
2013-03-08 01:07:00,48.4,47.3,29.19,East,94,13.0,19.0,96,0.00,,,0.00,meteohub,2013-03-08 01:07:00,
2013-03-08 01:12:00,48.6,47.5,29.18,ESE,103,10.0,19.0,96,0.00,,,0.00,meteohub,2013-03-08 01:12:00,
2013-03-08 01:17:00,48.4,47.3,29.18,East,93,11.0,19.0,96,0.00,,,0.00,meteohub,2013-03-08 01:17:00,
2013-03-08 01:22:00,48.6,47.5,29.18,ESE,106,15.0,21.0,96,0.00,,,0.00,meteohub,2013-03-08 01:22:00,
2013-03-08 01:27:00,48.6,47.5,29.19,East,82,11.0,21.0,96,0.00,,,0.00,meteohub,2013-03-08 01:27:00,
2013-03-08 01:32:00,48.6,47.5,29.19,East,94,11.0,21.0,96,0.00,,,0.00,meteohub,2013-03-08 01:32:00,
2013-03-08 01:37:00,48.6,47.5,29.19,East,90,11.0,24.0,96,0.00,,,0.00,meteohub,2013-03-08 01:37:00,
2013-03-08 01:42:00,48.6,47.5,29.19,East,98,9.0,24.0,96,0.00,,,0.00,meteohub,2013-03-08 01:42:00,
2013-03-08 01:47:00,48.6,47.5,29.19,East,94,9.0,24.0,96,0.00,,,0.00,meteohub,2013-03-08 01:47:00,
2013-03-08 01:52:00,48.6,47.5,29.18,East,99,10.0,22.0,96,0.00,,,0.00,meteohub,2013-03-08 01:52:00,
2013-03-08 01:57:00,48.6,47.5,29.19,ENE,73,10.0,21.0,96,0.00,,,0.00,meteohub,2013-03-08 01:57:00,
2013-03-08 02:02:00,48.6,47.5,29.19,ESE,103,13.0,21.0,96,0.00,,,0.00,meteohub,2013-03-08 02:02:00,
2013-03-08 02:12:00,48.4,47.3,29.18,ENE,71,13.0,20.0,96,0.00,,,0.00,meteohub,2013-03-08 02:12:00,
2013-03-08 02:22:00,48.6,47.5,29.18,East,100,8.0,21.0,96,0.00,,,0.00,meteohub,2013-03-08 02:22:00,
2013-03-08 02:27:00,48.6,47.5,29.19,ESE,118,9.0,21.0,96,0.00,,,0.00,meteohub,2013-03-08 02:27:00,
2013-03-08 02:32:00,48.6,47.5,29.19,ESE,102,11.0,18.0,96,0.00,,,0.00,meteohub,2013-03-08 02:32:00,
2013-03-08 02:37:00,48.6,47.5,29.19,ESE,110,15.0,18.0,96,0.00,,,0.00,meteohub,2013-03-08 02:37:00,
2013-03-08 02:42:00,48.6,47.5,29.18,East,84,10.0,19.0,96,0.00,,,0.00,meteohub,2013-03-08 02:42:00,
2013-03-08 02:47:00,48.6,47.5,29.18,ESE,108,10.0,19.0,96,0.00,,,0.00,meteohub,2013-03-08 02:47:00,
2013-03-08 02:52:00,48.6,47.5,29.18,East,92,9.0,19.0,96,0.00,,,0.00,meteohub,2013-03-08 02:52:00,
2013-03-08 02:57:00,48.6,47.5,29.18,East,88,9.0,18.0,96,0.00,,,0.00,meteohub,2013-03-08 02:57:00,
2013-03-08 03:02:00,48.6,47.5,29.18,ESE,105,10.0,18.0,96,0.00,,,0.00,meteohub,2013-03-08 03:02:00,
2013-03-08 03:07:00,48.6,47.5,29.18,ENE,75,10.0,19.0,96,0.00,,,0.00,meteohub,2013-03-08 03:07:00,
2013-03-08 03:12:00,48.6,47.5,29.18,ESE,109,11.0,19.0,96,0.00,,,0.00,meteohub,2013-03-08 03:12:00,
2013-03-08 03:17:00,48.6,47.5,29.18,ESE,109,13.0,19.0,96,0.00,,,0.00,meteohub,2013-03-08 03:17:00,
2013-03-08 03:22:00,48.6,47.5,29.18,East,90,10.0,18.0,96,0.00,,,0.00,meteohub,2013-03-08 03:22:00,
2013-03-08 03:27:00,48.6,47.5,29.17,East,81,8.0,16.0,96,0.00,,,0.00,meteohub,2013-03-08 03:27:00,
2013-03-08 03:32:00,48.6,47.5,29.17,East,92,8.0,16.0,96,0.00,,,0.00,meteohub,2013-03-08 03:32:00,
2013-03-08 03:37:00,48.6,47.5,29.17,East,92,9.0,16.0,96,0.00,,,0.00,meteohub,2013-03-08 03:37:00,
2013-03-08 03:42:00,48.6,47.5,29.17,ESE,109,9.0,19.0,96,0.00,,,0.00,meteohub,2013-03-08 03:42:00,
2013-03-08 03:47:00,48.7,47.7,29.17,East,96,9.0,21.0,96,0.00,,,0.00,meteohub,2013-03-08 03:47:00,
2013-03-08 03:57:00,48.7,47.7,29.17,East,98,10.0,18.0,96,0.00,,,0.00,meteohub,2013-03-08 03:57:00,
2013-03-08 04:02:00,48.7,47.7,29.17,East,96,8.0,19.0,96,0.00,,,0.00,meteohub,2013-03-08 04:02:00,
2013-03-08 04:07:00,48.9,47.8,29.17,ESE,111,15.0,19.0,96,0.00,,,0.00,meteohub,2013-03-08 04:07:00,
2013-03-08 04:12:00,48.9,47.8,29.17,East,97,9.0,20.0,96,0.00,,,0.00,meteohub,2013-03-08 04:12:00,
2013-03-08 04:17:00,48.9,47.8,29.17,ESE,111,9.0,20.0,96,0.00,,,0.00,meteohub,2013-03-08 04:17:00,
2013-03-08 04:22:00,48.9,47.8,29.17,ESE,107,14.0,20.0,96,0.00,,,0.00,meteohub,2013-03-08 04:22:00,
2013-03-08 04:32:00,48.7,47.7,29.17,ENE,78,10.0,19.0,96,0.00,,,0.00,meteohub,2013-03-08 04:32:00,
2013-03-08 04:37:00,48.7,47.7,29.17,East,82,9.0,20.0,96,0.00,,,0.00,meteohub,2013-03-08 04:37:00,
2013-03-08 04:42:00,48.7,47.7,29.17,East,99,11.0,20.0,96,0.00,,,0.00,meteohub,2013-03-08 04:42:00,
2013-03-08 04:47:00,48.7,47.7,29.17,ESE,106,10.0,20.0,96,0.00,,,0.00,meteohub,2013-03-08 04:47:00,
2013-03-08 04:52:00,48.6,47.5,29.17,ESE,107,10.0,20.0,96,0.00,,,0.00,meteohub,2013-03-08 04:52:00,
2013-03-08 04:57:00,48.6,47.5,29.17,ESE,107,11.0,20.0,96,0.00,,,0.00,meteohub,2013-03-08 04:57:00,
2013-03-08 05:02:00,48.6,47.5,29.17,SE,126,9.0,20.0,96,0.00,,,0.00,meteohub,2013-03-08 05:02:00,
2013-03-08 05:07:00,48.6,47.5,29.17,East,87,10.0,18.0,96,0.00,,,0.00,meteohub,2013-03-08 05:07:00,
2013-03-08 05:12:00,48.6,47.5,29.17,ESE,112,6.0,18.0,96,0.00,,,0.00,meteohub,2013-03-08 05:12:00,
2013-03-08 05:17:00,48.6,47.5,29.17,East,96,10.0,18.0,96,0.00,,,0.00,meteohub,2013-03-08 05:17:00,
2013-03-08 05:22:00,48.6,47.5,29.17,East,87,13.0,16.0,96,0.00,,,0.00,meteohub,2013-03-08 05:22:00,
2013-03-08 05:27:00,48.6,47.5,29.17,East,100,14.0,19.0,96,0.01,,,0.01,meteohub,2013-03-08 05:27:00,
2013-03-08 05:32:00,48.6,47.5,29.17,ESE,103,13.0,22.0,96,0.01,,,0.01,meteohub,2013-03-08 05:32:00,
2013-03-08 05:37:00,48.6,47.5,29.17,East,96,13.0,22.0,96,0.01,,,0.01,meteohub,2013-03-08 05:37:00,
2013-03-08 05:42:00,48.6,47.5,29.17,East,85,8.0,22.0,96,0.01,,,0.01,meteohub,2013-03-08 05:42:00,
2013-03-08 05:47:00,48.6,47.5,29.17,East,99,10.0,21.0,96,0.01,,,0.01,meteohub,2013-03-08 05:47:00,
2013-03-08 05:52:00,48.6,47.5,29.17,East,95,10.0,21.0,96,0.01,,,0.01,meteohub,2013-03-08 05:52:00,
2013-03-08 05:57:00,48.6,47.5,29.17,East,88,10.0,22.0,96,0.01,,,0.01,meteohub,2013-03-08 05:57:00,
2013-03-08 06:02:00,48.6,47.5,29.17,East,86,14.0,22.0,96,0.01,,,0.01,meteohub,2013-03-08 06:02:00,
2013-03-08 06:07:00,48.6,47.5,29.17,ESE,109,13.0,20.0,96,0.01,,,0.01,meteohub,2013-03-08 06:07:00,
2013-03-08 06:12:00,48.7,47.7,29.17,ESE,107,9.0,18.0,96,0.01,,,0.01,meteohub,2013-03-08 06:12:00,
2013-03-08 06:17:00,48.7,47.7,29.17,ESE,112,11.0,20.0,96,0.01,,,0.01,meteohub,2013-03-08 06:17:00,
2013-03-08 06:22:00,48.7,47.8,29.17,ESE,119,14.0,20.0,97,0.01,,,0.01,meteohub,2013-03-08 06:22:00,
2013-03-08 06:32:00,48.7,47.8,29.17,East,98,14.0,20.0,97,0.00,,,0.01,meteohub,2013-03-08 06:32:00,
2013-03-08 06:42:00,48.7,47.8,29.17,ESE,107,11.0,20.0,97,0.00,,,0.01,meteohub,2013-03-08 06:42:00,
2013-03-08 06:47:00,48.7,47.8,29.17,ESE,114,10.0,16.0,97,0.00,,,0.01,meteohub,2013-03-08 06:47:00,
2013-03-08 06:52:00,48.7,47.8,29.17,ESE,102,10.0,16.0,97,0.00,,,0.01,meteohub,2013-03-08 06:52:00,
2013-03-08 06:57:00,48.7,47.8,29.17,East,96,10.0,16.0,97,0.00,,,0.01,meteohub,2013-03-08 06:57:00,
2013-03-08 07:02:00,48.7,47.8,29.17,East,98,10.0,18.0,97,0.00,,,0.01,meteohub,2013-03-08 07:02:00,
2013-03-08 07:07:00,48.9,48.0,29.18,East,91,13.0,18.0,97,0.00,,,0.01,meteohub,2013-03-08 07:07:00,
2013-03-08 07:12:00,48.9,48.0,29.18,East,97,8.0,18.0,97,0.00,,,0.01,meteohub,2013-03-08 07:12:00,
2013-03-08 07:17:00,48.9,48.0,29.18,ESE,116,10.0,18.0,97,0.00,,,0.01,meteohub,2013-03-08 07:17:00,
2013-03-08 07:22:00,48.9,48.0,29.18,SE,134,13.0,18.0,97,0.00,,,0.01,meteohub,2013-03-08 07:22:00,
2013-03-08 07:27:00,48.9,48.0,29.18,ESE,120,6.0,18.0,97,0.01,,,0.02,meteohub,2013-03-08 07:27:00,
2013-03-08 07:32:00,49.1,48.2,29.18,East,96,8.0,18.0,97,0.01,,,0.02,meteohub,2013-03-08 07:32:00,
2013-03-08 07:37:00,49.1,48.2,29.18,ESE,114,5.0,18.0,97,0.01,,,0.02,meteohub,2013-03-08 07:37:00,
2013-03-08 07:42:00,49.1,48.2,29.18,ESE,104,10.0,18.0,97,0.01,,,0.02,meteohub,2013-03-08 07:42:00,
2013-03-08 07:47:00,49.3,48.4,29.18,ESE,103,6.0,18.0,97,0.01,,,0.02,meteohub,2013-03-08 07:47:00,
2013-03-08 07:57:00,49.3,48.4,29.18,ESE,103,10.0,18.0,97,0.02,,,0.02,meteohub,2013-03-08 07:57:00,
2013-03-08 08:02:00,49.3,48.4,29.18,ESE,113,6.0,16.0,97,0.02,,,0.02,meteohub,2013-03-08 08:02:00,
2013-03-08 08:07:00,49.3,48.4,29.18,ESE,119,9.0,15.0,97,0.02,,,0.02,meteohub,2013-03-08 08:07:00,
2013-03-08 08:17:00,49.3,48.4,29.18,ESE,119,10.0,18.0,97,0.02,,,0.02,meteohub,2013-03-08 08:17:00,
2013-03-08 08:22:00,49.3,48.4,29.18,East,99,13.0,21.0,97,0.02,,,0.02,meteohub,2013-03-08 08:22:00,
2013-03-08 08:27:00,49.5,48.6,29.18,ESE,111,9.0,21.0,97,0.01,,,0.02,meteohub,2013-03-08 08:27:00,
2013-03-08 08:32:00,49.5,48.6,29.18,ESE,102,6.0,20.0,97,0.01,,,0.02,meteohub,2013-03-08 08:32:00,
2013-03-08 08:37:00,49.5,48.6,29.18,East,99,9.0,20.0,97,0.01,,,0.02,meteohub,2013-03-08 08:37:00,
2013-03-08 08:42:00,49.5,48.6,29.18,ESE,110,10.0,20.0,97,0.01,,,0.02,meteohub,2013-03-08 08:42:00,
2013-03-08 08:47:00,49.6,48.7,29.18,East,92,10.0,20.0,97,0.01,,,0.02,meteohub,2013-03-08 08:47:00,
2013-03-08 08:52:00,49.6,48.7,29.18,ESE,105,6.0,19.0,97,0.00,,,0.02,meteohub,2013-03-08 08:52:00,
2013-03-08 08:57:00,49.6,48.7,29.18,ESE,117,11.0,19.0,97,0.00,,,0.02,meteohub,2013-03-08 08:57:00,
2013-03-08 09:02:00,49.8,48.9,29.18,ESE,108,14.0,20.0,97,0.00,,,0.02,meteohub,2013-03-08 09:02:00,
2013-03-08 09:07:00,50.0,49.1,29.18,East,96,10.0,20.0,97,0.00,,,0.02,meteohub,2013-03-08 09:07:00,
2013-03-08 09:17:00,50.5,49.6,29.19,ESE,103,13.0,19.0,97,0.00,,,0.02,meteohub,2013-03-08 09:17:00,
2013-03-08 09:22:00,50.5,49.6,29.19,East,95,10.0,21.0,97,0.00,,,0.02,meteohub,2013-03-08 09:22:00,
2013-03-08 09:27:00,50.5,49.6,29.19,East,95,14.0,22.0,97,0.00,,,0.02,meteohub,2013-03-08 09:27:00,
2013-03-08 09:32:00,50.5,49.6,29.19,ESE,122,13.0,22.0,97,0.00,,,0.02,meteohub,2013-03-08 09:32:00,
2013-03-08 09:37:00,50.5,49.6,29.20,ESE,121,19.0,22.0,97,0.00,,,0.02,meteohub,2013-03-08 09:37:00,
2013-03-08 09:42:00,50.7,49.8,29.20,ESE,116,15.0,22.0,97,0.00,,,0.02,meteohub,2013-03-08 09:42:00,
2013-03-08 09:47:00,50.7,49.8,29.20,ESE,115,15.0,22.0,97,0.00,,,0.02,meteohub,2013-03-08 09:47:00,
2013-03-08 09:52:00,50.7,49.8,29.20,ESE,118,13.0,24.0,97,0.00,,,0.02,meteohub,2013-03-08 09:52:00,
2013-03-08 09:57:00,50.7,49.8,29.20,ESE,108,16.0,24.0,97,0.00,,,0.02,meteohub,2013-03-08 09:57:00,
2013-03-08 10:02:00,51.1,50.2,29.20,East,97,9.0,20.0,97,0.00,,,0.02,meteohub,2013-03-08 10:02:00,
2013-03-08 10:07:00,51.6,50.7,29.20,ESE,120,14.0,19.0,97,0.00,,,0.02,meteohub,2013-03-08 10:07:00,
2013-03-08 10:12:00,52.0,51.1,29.20,ESE,113,10.0,20.0,97,0.00,,,0.02,meteohub,2013-03-08 10:12:00,
2013-03-08 10:17:00,52.0,50.9,29.21,ESE,114,13.0,20.0,96,0.00,,,0.02,meteohub,2013-03-08 10:17:00,
2013-03-08 10:22:00,52.2,51.1,29.20,ESE,113,6.0,20.0,96,0.00,,,0.02,meteohub,2013-03-08 10:22:00,
2013-03-08 10:27:00,52.3,51.3,29.20,ESE,116,15.0,20.0,96,0.00,,,0.02,meteohub,2013-03-08 10:27:00,
2013-03-08 10:32:00,52.7,51.6,29.20,ESE,103,11.0,19.0,96,0.00,,,0.02,meteohub,2013-03-08 10:32:00,
2013-03-08 10:37:00,52.7,51.6,29.21,ESE,109,11.0,21.0,96,0.00,,,0.02,meteohub,2013-03-08 10:37:00,
2013-03-08 10:42:00,52.7,51.3,29.21,East,95,10.0,21.0,95,0.00,,,0.02,meteohub,2013-03-08 10:42:00,
2013-03-08 10:47:00,52.5,51.1,29.21,ESE,113,13.0,21.0,95,0.00,,,0.02,meteohub,2013-03-08 10:47:00,
2013-03-08 10:52:00,52.5,51.1,29.21,ESE,115,6.0,21.0,95,0.00,,,0.02,meteohub,2013-03-08 10:52:00,
2013-03-08 10:57:00,52.7,51.3,29.21,ESE,119,13.0,20.0,95,0.00,,,0.02,meteohub,2013-03-08 10:57:00,
2013-03-08 11:02:00,52.9,51.4,29.21,SE,128,8.0,20.0,95,0.00,,,0.02,meteohub,2013-03-08 11:02:00,
2013-03-08 11:07:00,52.9,51.3,29.22,ESE,123,11.0,18.0,94,0.00,,,0.02,meteohub,2013-03-08 11:07:00,
2013-03-08 11:12:00,52.9,51.3,29.22,SE,125,8.0,18.0,94,0.00,,,0.02,meteohub,2013-03-08 11:12:00,
2013-03-08 11:17:00,52.9,51.3,29.22,ESE,120,5.0,18.0,94,0.00,,,0.02,meteohub,2013-03-08 11:17:00,
2013-03-08 11:22:00,52.9,51.3,29.22,SE,144,2.0,15.0,94,0.00,,,0.02,meteohub,2013-03-08 11:22:00,
2013-03-08 11:27:00,52.9,51.3,29.23,ESE,104,4.0,14.0,94,0.00,,,0.02,meteohub,2013-03-08 11:27:00,
2013-03-08 11:32:00,53.2,51.6,29.23,SE,124,4.0,14.0,94,0.00,,,0.02,meteohub,2013-03-08 11:32:00,
2013-03-08 11:37:00,54.1,52.2,29.23,ESE,121,11.0,14.0,93,0.00,,,0.02,meteohub,2013-03-08 11:37:00,
2013-03-08 11:42:00,54.9,52.5,29.23,ESE,112,5.0,19.0,92,0.00,,,0.02,meteohub,2013-03-08 11:42:00,
2013-03-08 11:47:00,55.0,52.5,29.23,ESE,115,6.0,19.0,91,0.00,,,0.02,meteohub,2013-03-08 11:47:00,
2013-03-08 11:52:00,54.9,52.0,29.23,SE,146,4.0,19.0,90,0.00,,,0.02,meteohub,2013-03-08 11:52:00,
2013-03-08 11:57:00,54.7,51.8,29.23,SSE,157,2.0,15.0,90,0.00,,,0.02,meteohub,2013-03-08 11:57:00,
2013-03-08 12:02:00,54.7,51.8,29.23,SE,140,8.0,16.0,90,0.00,,,0.02,meteohub,2013-03-08 12:02:00,
2013-03-08 12:07:00,54.9,52.0,29.23,ESE,120,5.0,16.0,90,0.00,,,0.02,meteohub,2013-03-08 12:07:00,
2013-03-08 12:12:00,54.9,52.0,29.23,ESE,121,9.0,16.0,90,0.00,,,0.02,meteohub,2013-03-08 12:12:00,
2013-03-08 12:17:00,55.2,52.0,29.23,ESE,121,6.0,15.0,89,0.00,,,0.02,meteohub,2013-03-08 12:17:00,
2013-03-08 12:22:00,55.9,52.7,29.23,SE,136,6.0,15.0,89,0.00,,,0.02,meteohub,2013-03-08 12:22:00,
2013-03-08 12:27:00,56.7,53.1,29.24,East,80,16.0,16.0,88,0.00,,,0.02,meteohub,2013-03-08 12:27:00,
2013-03-08 12:32:00,56.3,52.5,29.24,ESE,117,5.0,16.0,87,0.00,,,0.02,meteohub,2013-03-08 12:32:00,
2013-03-08 12:37:00,56.8,53.2,29.24,SSE,168,6.0,16.0,88,0.00,,,0.02,meteohub,2013-03-08 12:37:00,
2013-03-08 12:42:00,57.4,53.6,29.24,SE,146,9.0,16.0,87,0.00,,,0.02,meteohub,2013-03-08 12:42:00,
2013-03-08 12:47:00,57.4,53.2,29.24,SE,138,11.0,15.0,86,0.00,,,0.02,meteohub,2013-03-08 12:47:00,
2013-03-08 12:52:00,57.4,52.9,29.24,South,178,4.0,14.0,85,0.00,,,0.02,meteohub,2013-03-08 12:52:00,
2013-03-08 12:57:00,57.7,52.9,29.24,SE,130,4.0,14.0,84,0.00,,,0.02,meteohub,2013-03-08 12:57:00,
2013-03-08 13:02:00,57.6,52.7,29.24,SSE,149,4.0,15.0,84,0.00,,,0.02,meteohub,2013-03-08 13:02:00,
2013-03-08 13:07:00,58.3,54.1,29.24,SSE,164,9.0,15.0,86,0.00,,,0.02,meteohub,2013-03-08 13:07:00,
2013-03-08 13:12:00,57.7,52.9,29.24,SSW,194,9.0,16.0,84,0.00,,,0.02,meteohub,2013-03-08 13:12:00,
2013-03-08 13:22:00,57.7,52.7,29.24,SW,215,8.0,16.0,83,0.00,,,0.02,meteohub,2013-03-08 13:22:00,
2013-03-08 13:27:00,57.7,52.3,29.25,SSE,163,4.0,15.0,82,0.00,,,0.02,meteohub,2013-03-08 13:27:00,
2013-03-08 13:32:00,57.6,52.2,29.25,SE,130,4.0,19.0,82,0.00,,,0.02,meteohub,2013-03-08 13:32:00,
2013-03-08 13:37:00,57.4,52.3,29.25,SSE,158,6.0,19.0,83,0.00,,,0.02,meteohub,2013-03-08 13:37:00,
2013-03-08 13:42:00,57.4,52.3,29.25,SSW,202,6.0,19.0,83,0.00,,,0.02,meteohub,2013-03-08 13:42:00,
2013-03-08 13:47:00,57.4,52.3,29.25,SE,140,13.0,15.0,83,0.00,,,0.02,meteohub,2013-03-08 13:47:00,
2013-03-08 13:52:00,57.4,52.3,29.25,South,169,9.0,16.0,83,0.00,,,0.02,meteohub,2013-03-08 13:52:00,
2013-03-08 13:57:00,57.7,52.7,29.25,SSW,193,10.0,16.0,83,0.00,,,0.02,meteohub,2013-03-08 13:57:00,
2013-03-08 14:02:00,58.1,52.7,29.25,South,178,10.0,16.0,82,0.00,,,0.02,meteohub,2013-03-08 14:02:00,
2013-03-08 14:07:00,57.7,52.0,29.26,South,185,13.0,16.0,81,0.00,,,0.02,meteohub,2013-03-08 14:07:00,
2013-03-08 14:12:00,57.7,51.6,29.26,SSE,165,6.0,18.0,80,0.00,,,0.02,meteohub,2013-03-08 14:12:00,
2013-03-08 14:17:00,57.6,51.4,29.26,South,171,10.0,22.0,80,0.00,,,0.02,meteohub,2013-03-08 14:17:00,
2013-03-08 14:22:00,57.2,51.4,29.26,South,181,9.0,22.0,81,0.00,,,0.02,meteohub,2013-03-08 14:22:00,
2013-03-08 14:27:00,56.8,51.4,29.26,South,182,6.0,19.0,82,0.00,,,0.02,meteohub,2013-03-08 14:27:00,
2013-03-08 14:32:00,56.8,51.8,29.26,SSW,197,14.0,19.0,83,0.00,,,0.02,meteohub,2013-03-08 14:32:00,
2013-03-08 14:37:00,57.2,52.2,29.27,SE,133,9.0,16.0,83,0.00,,,0.02,meteohub,2013-03-08 14:37:00,
2013-03-08 14:47:00,57.4,52.0,29.27,SSE,168,8.0,18.0,82,0.00,,,0.02,meteohub,2013-03-08 14:47:00,
2013-03-08 14:52:00,57.4,51.6,29.27,SE,144,5.0,18.0,81,0.00,,,0.02,meteohub,2013-03-08 14:52:00,
2013-03-08 14:57:00,57.6,51.8,29.27,SE,140,6.0,18.0,81,0.00,,,0.02,meteohub,2013-03-08 14:57:00,
2013-03-08 15:02:00,57.6,51.4,29.27,SSE,166,9.0,18.0,80,0.00,,,0.02,meteohub,2013-03-08 15:02:00,
2013-03-08 15:07:00,57.6,51.4,29.28,South,178,8.0,18.0,80,0.00,,,0.02,meteohub,2013-03-08 15:07:00,
2013-03-08 15:12:00,57.6,51.4,29.28,South,188,6.0,19.0,80,0.00,,,0.02,meteohub,2013-03-08 15:12:00,
2013-03-08 15:17:00,57.6,51.8,29.28,South,182,8.0,19.0,81,0.00,,,0.02,meteohub,2013-03-08 15:17:00,
2013-03-08 15:22:00,57.6,51.8,29.29,SSE,151,15.0,19.0,81,0.00,,,0.02,meteohub,2013-03-08 15:22:00,
2013-03-08 15:27:00,57.6,51.4,29.29,ESE,109,9.0,20.0,80,0.00,,,0.02,meteohub,2013-03-08 15:27:00,
2013-03-08 15:32:00,57.6,51.8,29.29,South,173,4.0,20.0,81,0.00,,,0.02,meteohub,2013-03-08 15:32:00,
2013-03-08 15:37:00,57.7,52.0,29.29,SSE,153,2.0,20.0,81,0.00,,,0.02,meteohub,2013-03-08 15:37:00,
2013-03-08 15:42:00,57.6,51.8,29.29,SSE,163,11.0,16.0,81,0.00,,,0.02,meteohub,2013-03-08 15:42:00,
2013-03-08 15:47:00,57.7,52.0,29.29,South,175,6.0,16.0,81,0.00,,,0.02,meteohub,2013-03-08 15:47:00,
2013-03-08 15:52:00,57.7,52.0,29.29,SE,144,9.0,16.0,81,0.00,,,0.02,meteohub,2013-03-08 15:52:00,
2013-03-08 15:57:00,57.7,51.6,29.29,SSW,198,4.0,16.0,80,0.00,,,0.02,meteohub,2013-03-08 15:57:00,
2013-03-08 16:02:00,57.6,51.4,29.29,SSE,161,9.0,16.0,80,0.00,,,0.02,meteohub,2013-03-08 16:02:00,
2013-03-08 16:07:00,57.6,51.4,29.29,SE,130,4.0,16.0,80,0.00,,,0.02,meteohub,2013-03-08 16:07:00,
2013-03-08 16:12:00,57.6,51.4,29.30,SE,136,6.0,18.0,80,0.00,,,0.02,meteohub,2013-03-08 16:12:00,
2013-03-08 16:17:00,57.4,50.9,29.30,SE,130,6.0,18.0,79,0.00,,,0.02,meteohub,2013-03-08 16:17:00,
2013-03-08 16:22:00,57.4,50.9,29.30,SE,143,4.0,18.0,79,0.00,,,0.02,meteohub,2013-03-08 16:22:00,
2013-03-08 16:27:00,57.2,51.1,29.30,SSE,168,5.0,18.0,80,0.00,,,0.02,meteohub,2013-03-08 16:27:00,
2013-03-08 16:32:00,57.0,50.9,29.30,South,188,8.0,16.0,80,0.00,,,0.02,meteohub,2013-03-08 16:32:00,
2013-03-08 16:37:00,57.0,50.9,29.30,SE,142,10.0,16.0,80,0.00,,,0.02,meteohub,2013-03-08 16:37:00,
2013-03-08 16:42:00,56.8,51.1,29.30,SE,126,4.0,15.0,81,0.00,,,0.02,meteohub,2013-03-08 16:42:00,
2013-03-08 16:47:00,56.8,51.1,29.31,SE,128,4.0,14.0,81,0.00,,,0.02,meteohub,2013-03-08 16:47:00,
2013-03-08 16:52:00,56.7,51.3,29.31,SE,140,1.0,11.0,82,0.00,,,0.02,meteohub,2013-03-08 16:52:00,
2013-03-08 16:57:00,56.5,50.7,29.31,South,190,10.0,13.0,81,0.00,,,0.02,meteohub,2013-03-08 16:57:00,
2013-03-08 17:02:00,56.5,50.7,29.31,SE,134,8.0,13.0,81,0.00,,,0.02,meteohub,2013-03-08 17:02:00,
2013-03-08 17:07:00,56.5,50.7,29.32,SSE,148,2.0,13.0,81,0.00,,,0.02,meteohub,2013-03-08 17:07:00,
2013-03-08 17:12:00,56.5,50.4,29.32,SE,144,5.0,14.0,80,0.00,,,0.02,meteohub,2013-03-08 17:12:00,
2013-03-08 17:17:00,56.5,50.4,29.32,South,187,4.0,15.0,80,0.00,,,0.02,meteohub,2013-03-08 17:17:00,
2013-03-08 17:22:00,56.1,50.4,29.32,South,173,10.0,15.0,81,0.00,,,0.02,meteohub,2013-03-08 17:22:00,
2013-03-08 17:27:00,56.1,50.0,29.32,South,174,8.0,15.0,80,0.00,,,0.02,meteohub,2013-03-08 17:27:00,
2013-03-08 17:32:00,56.1,50.4,29.33,SE,135,2.0,15.0,81,0.00,,,0.02,meteohub,2013-03-08 17:32:00,
2013-03-08 17:37:00,56.1,50.4,29.33,SSE,148,5.0,15.0,81,0.00,,,0.02,meteohub,2013-03-08 17:37:00,
2013-03-08 17:42:00,55.9,50.2,29.34,South,175,4.0,15.0,81,0.00,,,0.02,meteohub,2013-03-08 17:42:00,
2013-03-08 17:47:00,55.9,50.2,29.33,South,180,10.0,15.0,81,0.00,,,0.02,meteohub,2013-03-08 17:47:00,
2013-03-08 17:57:00,55.8,50.4,29.34,SE,138,4.0,15.0,82,0.00,,,0.02,meteohub,2013-03-08 17:57:00,
2013-03-08 18:02:00,55.6,50.2,29.34,SE,131,5.0,10.0,82,0.00,,,0.02,meteohub,2013-03-08 18:02:00,
2013-03-08 18:07:00,55.4,50.0,29.34,SSE,150,2.0,15.0,82,0.00,,,0.02,meteohub,2013-03-08 18:07:00,
2013-03-08 18:12:00,55.2,49.8,29.34,SSE,167,5.0,15.0,82,0.00,,,0.02,meteohub,2013-03-08 18:12:00,
2013-03-08 18:17:00,55.0,49.6,29.34,SE,134,4.0,15.0,82,0.00,,,0.02,meteohub,2013-03-08 18:17:00,
2013-03-08 18:22:00,54.9,49.5,29.35,SE,129,8.0,10.0,82,0.00,,,0.02,meteohub,2013-03-08 18:22:00,
2013-03-08 18:27:00,54.7,49.3,29.35,ESE,122,5.0,10.0,82,0.00,,,0.02,meteohub,2013-03-08 18:27:00,
2013-03-08 18:32:00,54.3,49.3,29.35,ESE,105,9.0,13.0,83,0.00,,,0.02,meteohub,2013-03-08 18:32:00,
2013-03-08 18:37:00,54.1,49.1,29.35,ESE,109,5.0,13.0,83,0.00,,,0.02,meteohub,2013-03-08 18:37:00,
2013-03-08 18:42:00,54.0,48.9,29.35,ESE,121,5.0,13.0,83,0.00,,,0.02,meteohub,2013-03-08 18:42:00,
2013-03-08 18:47:00,53.8,48.7,29.35,SSE,148,6.0,13.0,83,0.00,,,0.02,meteohub,2013-03-08 18:47:00,
2013-03-08 18:52:00,53.4,48.4,29.35,ESE,122,6.0,13.0,83,0.00,,,0.02,meteohub,2013-03-08 18:52:00,
2013-03-08 18:57:00,53.2,48.2,29.36,SSE,150,2.0,13.0,83,0.00,,,0.02,meteohub,2013-03-08 18:57:00,
2013-03-08 19:02:00,53.1,48.0,29.36,SE,138,4.0,13.0,83,0.00,,,0.02,meteohub,2013-03-08 19:02:00,
2013-03-08 19:12:00,52.7,47.7,29.36,SE,144,6.0,14.0,83,0.00,,,0.02,meteohub,2013-03-08 19:12:00,
2013-03-08 19:17:00,52.5,47.8,29.36,ESE,119,10.0,18.0,84,0.00,,,0.02,meteohub,2013-03-08 19:17:00,
2013-03-08 19:22:00,52.5,47.8,29.37,SE,129,9.0,18.0,84,0.00,,,0.02,meteohub,2013-03-08 19:22:00,
2013-03-08 19:27:00,52.3,47.7,29.37,ESE,115,11.0,16.0,84,0.00,,,0.02,meteohub,2013-03-08 19:27:00,
2013-03-08 19:32:00,52.3,47.7,29.37,ESE,115,4.0,15.0,84,0.00,,,0.02,meteohub,2013-03-08 19:32:00,
2013-03-08 19:37:00,52.2,47.5,29.37,SE,125,4.0,13.0,84,0.00,,,0.02,meteohub,2013-03-08 19:37:00,
2013-03-08 19:47:00,52.2,47.8,29.37,SE,141,5.0,11.0,85,0.00,,,0.02,meteohub,2013-03-08 19:47:00,
2013-03-08 19:52:00,52.2,47.8,29.38,SE,142,8.0,11.0,85,0.00,,,0.02,meteohub,2013-03-08 19:52:00,
2013-03-08 19:57:00,52.2,47.8,29.38,ESE,114,4.0,10.0,85,0.00,,,0.02,meteohub,2013-03-08 19:57:00,
2013-03-08 20:02:00,52.0,47.7,29.38,ESE,123,2.0,10.0,85,0.00,,,0.02,meteohub,2013-03-08 20:02:00,
2013-03-08 20:12:00,52.0,47.7,29.38,ESE,104,5.0,10.0,85,0.00,,,0.02,meteohub,2013-03-08 20:12:00,
2013-03-08 20:22:00,51.6,47.3,29.38,ESE,106,5.0,6.0,85,0.00,,,0.02,meteohub,2013-03-08 20:22:00,
2013-03-08 20:32:00,51.3,47.3,29.39,ESE,119,4.0,13.0,86,0.00,,,0.02,meteohub,2013-03-08 20:32:00,
2013-03-08 20:37:00,51.1,47.3,29.39,SE,124,5.0,13.0,87,0.00,,,0.02,meteohub,2013-03-08 20:37:00,
2013-03-08 20:42:00,50.7,46.9,29.39,ESE,119,5.0,13.0,87,0.00,,,0.02,meteohub,2013-03-08 20:42:00,
2013-03-08 20:47:00,50.5,46.8,29.39,ESE,118,6.0,14.0,87,0.00,,,0.02,meteohub,2013-03-08 20:47:00,
2013-03-08 20:52:00,50.4,46.6,29.39,ESE,111,10.0,14.0,87,0.00,,,0.02,meteohub,2013-03-08 20:52:00,
2013-03-08 20:57:00,50.2,46.4,29.39,ESE,119,5.0,14.0,87,0.00,,,0.02,meteohub,2013-03-08 20:57:00,
2013-03-08 21:02:00,49.8,46.0,29.39,ESE,115,9.0,14.0,87,0.00,,,0.02,meteohub,2013-03-08 21:02:00,
2013-03-08 21:07:00,49.6,45.9,29.39,East,89,4.0,14.0,87,0.00,,,0.02,meteohub,2013-03-08 21:07:00,
2013-03-08 21:12:00,49.5,46.0,29.39,East,91,4.0,9.0,88,0.00,,,0.02,meteohub,2013-03-08 21:12:00,
2013-03-08 21:17:00,49.3,45.9,29.39,ESE,111,6.0,9.0,88,0.00,,,0.02,meteohub,2013-03-08 21:17:00,
2013-03-08 21:22:00,48.9,45.5,29.40,ESE,102,4.0,9.0,88,0.00,,,0.02,meteohub,2013-03-08 21:22:00,
2013-03-08 21:27:00,48.7,45.3,29.39,ESE,104,9.0,9.0,88,0.00,,,0.02,meteohub,2013-03-08 21:27:00,
2013-03-08 21:32:00,48.6,45.5,29.39,ESE,114,6.0,10.0,89,0.00,,,0.02,meteohub,2013-03-08 21:32:00,
2013-03-08 21:42:00,48.0,45.1,29.40,ESE,106,9.0,15.0,90,0.00,,,0.02,meteohub,2013-03-08 21:42:00,
2013-03-08 21:52:00,47.8,45.0,29.40,ESE,103,10.0,15.0,90,0.00,,,0.02,meteohub,2013-03-08 21:52:00,
2013-03-08 22:02:00,47.8,45.3,29.40,ESE,103,11.0,16.0,91,0.00,,,0.02,meteohub,2013-03-08 22:02:00,
2013-03-08 22:07:00,47.8,45.3,29.40,ESE,121,9.0,16.0,91,0.00,,,0.02,meteohub,2013-03-08 22:07:00,
2013-03-08 22:12:00,47.7,45.1,29.40,SE,132,9.0,16.0,91,0.00,,,0.02,meteohub,2013-03-08 22:12:00,
2013-03-08 22:17:00,47.7,45.5,29.41,ESE,106,10.0,15.0,92,0.00,,,0.02,meteohub,2013-03-08 22:17:00,
2013-03-08 22:22:00,47.5,45.3,29.41,ESE,109,14.0,15.0,92,0.00,,,0.02,meteohub,2013-03-08 22:22:00,
2013-03-08 22:27:00,47.5,45.3,29.41,ESE,109,13.0,19.0,92,0.00,,,0.02,meteohub,2013-03-08 22:27:00,
2013-03-08 22:32:00,47.5,45.3,29.41,East,99,10.0,19.0,92,0.00,,,0.02,meteohub,2013-03-08 22:32:00,
2013-03-08 22:37:00,47.7,45.5,29.41,ESE,107,11.0,19.0,92,0.00,,,0.02,meteohub,2013-03-08 22:37:00,
2013-03-08 22:42:00,47.7,45.7,29.41,East,92,8.0,18.0,93,0.00,,,0.02,meteohub,2013-03-08 22:42:00,
2013-03-08 22:47:00,47.8,45.9,29.41,ENE,68,6.0,18.0,93,0.00,,,0.02,meteohub,2013-03-08 22:47:00,
2013-03-08 22:52:00,47.8,45.9,29.41,ESE,106,5.0,13.0,93,0.00,,,0.02,meteohub,2013-03-08 22:52:00,
2013-03-08 22:57:00,47.8,45.9,29.41,ESE,110,6.0,13.0,93,0.00,,,0.02,meteohub,2013-03-08 22:57:00,
2013-03-08 23:02:00,47.8,45.9,29.41,East,98,9.0,13.0,93,0.00,,,0.02,meteohub,2013-03-08 23:02:00,
2013-03-08 23:12:00,48.0,46.0,29.40,ESE,107,5.0,13.0,93,0.00,,,0.02,meteohub,2013-03-08 23:12:00,
2013-03-08 23:17:00,48.0,46.0,29.40,ESE,103,5.0,14.0,93,0.00,,,0.02,meteohub,2013-03-08 23:17:00,
2013-03-08 23:22:00,48.2,46.2,29.40,ESE,119,6.0,14.0,93,0.00,,,0.02,meteohub,2013-03-08 23:22:00,
2013-03-08 23:27:00,48.2,46.2,29.40,East,85,9.0,15.0,93,0.00,,,0.02,meteohub,2013-03-08 23:27:00,
2013-03-08 23:32:00,48.2,46.2,29.40,East,86,10.0,15.0,93,0.00,,,0.02,meteohub,2013-03-08 23:32:00,
2013-03-08 23:37:00,48.4,46.4,29.40,East,101,9.0,16.0,93,0.00,,,0.02,meteohub,2013-03-08 23:37:00,
2013-03-08 23:42:00,48.4,46.4,29.40,East,96,9.0,16.0,93,0.00,,,0.02,meteohub,2013-03-08 23:42:00,
2013-03-08 23:47:00,48.4,46.4,29.40,East,99,9.0,16.0,93,0.00,,,0.02,meteohub,2013-03-08 23:47:00,
2013-03-08 23:52:00,48.4,46.4,29.40,ESE,105,6.0,18.0,93,0.00,,,0.02,meteohub,2013-03-08 23:52:00,
2013-03-08 23:57:00,48.6,46.6,29.40,East,98,14.0,19.0,93,0.00,,,0.02,meteohub,2013-03-08 23:57:00,